createdAt,value
2023-02-05T00:02:25.423Z,18.73
2023-02-05T00:04:54.431Z,17.85
2023-02-05T00:07:22.732Z,18.63
2023-02-05T00:09:50.909Z,17.65
2023-02-05T00:12:19.243Z,20.95
2023-02-05T00:14:47.636Z,14.65
2023-02-05T00:17:17.380Z,15.30
2023-02-05T00:19:45.632Z,18.90
2023-02-05T00:22:14.309Z,21.55
2023-02-05T00:24:42.609Z,17.27
2023-02-05T00:27:10.897Z,17.08
2023-02-05T00:29:39.739Z,18.40
2023-02-05T00:32:08.019Z,15.95
2023-02-05T00:34:37.571Z,18.90
2023-02-05T00:37:05.897Z,22.10
2023-02-05T00:39:34.080Z,18.58
2023-02-05T00:42:02.379Z,20.73
2023-02-05T00:44:30.581Z,18.35
2023-02-05T00:46:58.922Z,18.52
2023-02-05T00:49:27.190Z,19.77
2023-02-05T00:51:56.827Z,18.90
2023-02-05T00:54:25.033Z,19.38
2023-02-05T00:56:53.591Z,20.42
2023-02-05T00:59:23.732Z,17.90
2023-02-05T01:01:52.153Z,12.98
2023-02-05T01:04:22.053Z,19.37
2023-02-05T01:06:50.220Z,15.88
2023-02-05T01:09:19.961Z,24.87
2023-02-05T01:11:48.145Z,18.80
2023-02-05T01:14:16.349Z,16.63
2023-02-05T01:16:44.873Z,14.38
2023-02-05T01:19:13.068Z,25.55
2023-02-05T01:21:41.293Z,17.40
2023-02-05T01:24:09.605Z,19.23
2023-02-05T01:26:39.185Z,19.60
2023-02-05T01:29:09.947Z,16.65
2023-02-05T01:31:38.298Z,27.92
2023-02-05T01:34:07.082Z,13.95
2023-02-05T01:36:35.352Z,15.55
2023-02-05T01:39:03.734Z,21.65
2023-02-05T01:41:32.630Z,23.10
2023-02-05T01:44:10.605Z,17.65
2023-02-05T01:46:40.041Z,19.07
2023-02-05T01:49:11.931Z,20.75
2023-02-05T01:51:40.501Z,20.48
2023-02-05T01:54:09.848Z,17.80
2023-02-05T01:56:42.830Z,16.08
2023-02-05T01:59:17.315Z,16.45
2023-02-05T02:01:46.093Z,15.63
2023-02-05T02:04:21.636Z,18.30
2023-02-05T02:06:49.888Z,25.67
2023-02-05T02:09:18.279Z,18.05
2023-02-05T02:11:46.577Z,21.35
2023-02-05T02:14:17.413Z,18.90
2023-02-05T02:16:46.017Z,20.73
2023-02-05T02:19:22.461Z,22.73
2023-02-05T02:22:26.957Z,19.23
2023-02-05T02:25:15.644Z,17.40
2023-02-05T02:27:50.712Z,23.15
2023-02-05T02:30:26.800Z,18.98
2023-02-05T02:33:06.249Z,18.73
2023-02-05T02:35:39.964Z,22.13
2023-02-05T02:38:13.657Z,20.55
2023-02-05T02:40:45.434Z,19.67
2023-02-05T02:43:24.828Z,20.55
2023-02-05T02:45:56.885Z,18.33
2023-02-05T02:48:27.185Z,22.33
2023-02-05T02:50:57.635Z,22.20
2023-02-05T02:53:29.407Z,18.40
2023-02-05T02:55:59.748Z,20.10
2023-02-05T02:58:36.249Z,24.20
2023-02-05T03:01:08.031Z,21.33
2023-02-05T03:03:41.872Z,17.30
2023-02-05T03:06:12.746Z,18.30
2023-02-05T03:08:48.412Z,20.33
2023-02-05T03:11:17.378Z,23.53
2023-02-05T03:13:48.487Z,18.15
2023-02-05T03:16:21.464Z,22.98
2023-02-05T03:18:50.495Z,20.10
2023-02-05T03:21:24.037Z,18.63
2023-02-05T03:23:52.320Z,20.38
2023-02-05T03:26:26.542Z,23.08
2023-02-05T03:29:05.125Z,18.90
2023-02-05T03:31:43.543Z,22.38
2023-02-05T03:34:23.836Z,22.17
2023-02-05T03:37:01.191Z,22.83
2023-02-05T03:39:41.062Z,21.48
2023-02-05T03:42:17.569Z,19.25
2023-02-05T03:45:19.128Z,20.27
2023-02-05T03:48:03.986Z,22.00
2023-02-05T03:50:38.550Z,17.13
2023-02-05T03:53:15.282Z,22.08
2023-02-05T03:55:48.516Z,18.23
2023-02-05T03:58:19.963Z,20.10
2023-02-05T04:00:50.253Z,20.60
2023-02-05T04:03:19.283Z,20.77
2023-02-05T04:05:47.494Z,22.02
2023-02-05T04:08:15.754Z,21.40
2023-02-05T04:10:48.667Z,22.17
2023-02-05T04:13:16.901Z,25.80
2023-02-05T04:15:45.841Z,23.48
2023-02-05T04:18:19.212Z,18.40
2023-02-05T04:20:49.356Z,16.15
2023-02-05T04:23:21.014Z,17.95
2023-02-05T04:25:54.046Z,16.17
2023-02-05T04:28:26.053Z,23.00
2023-02-05T04:30:55.184Z,18.02
2023-02-05T04:33:25.303Z,18.73
2023-02-05T04:35:58.911Z,18.52
2023-02-05T04:38:27.984Z,19.67
2023-02-05T04:40:56.216Z,21.83
2023-02-05T04:43:24.649Z,22.77
2023-02-05T04:45:53.029Z,19.85
2023-02-05T04:48:21.825Z,21.45
2023-02-05T04:50:51.349Z,24.15
2023-02-05T04:53:19.646Z,23.92
2023-02-05T04:55:47.931Z,27.55
2023-02-05T04:58:16.093Z,21.10
2023-02-05T05:00:44.355Z,19.40
2023-02-05T05:03:12.575Z,18.58
2023-02-05T05:05:40.742Z,23.15
2023-02-05T05:08:10.315Z,29.02
2023-02-05T05:10:39.884Z,17.63
2023-02-05T05:13:08.079Z,23.25
2023-02-05T05:15:36.532Z,23.38
2023-02-05T05:18:05.210Z,28.17
2023-02-05T05:20:33.453Z,23.07
2023-02-05T05:23:02.093Z,28.10
2023-02-05T05:25:31.884Z,18.25
2023-02-05T05:28:00.575Z,28.25
2023-02-05T05:30:28.867Z,24.30
2023-02-05T05:32:57.133Z,34.92
2023-02-05T05:35:25.349Z,26.02
2023-02-05T05:37:53.511Z,27.08
2023-02-05T05:40:40.988Z,28.60
2023-02-05T05:43:31.046Z,22.75
2023-02-05T05:45:59.737Z,23.58
2023-02-05T05:48:28.005Z,19.05
2023-02-05T05:50:56.497Z,25.10
2023-02-05T05:53:25.236Z,25.27
2023-02-05T05:55:53.420Z,23.80
2023-02-05T05:58:22.976Z,25.63
2023-02-05T06:00:51.173Z,31.38
2023-02-05T06:03:19.543Z,26.55
2023-02-05T06:05:47.653Z,38.75
2023-02-05T06:08:16.362Z,45.72
2023-02-05T06:10:44.756Z,40.63
2023-02-05T06:13:13.201Z,38.67
2023-02-05T06:15:42.940Z,31.90
2023-02-05T06:18:11.192Z,38.70
2023-02-05T06:20:39.420Z,41.42
2023-02-05T06:23:07.797Z,40.67
2023-02-05T06:25:36.359Z,35.97
2023-02-05T06:28:04.890Z,39.33
2023-02-05T06:30:33.113Z,34.78
2023-02-05T06:33:03.379Z,41.38
2023-02-05T06:35:32.146Z,46.70
2023-02-05T06:38:00.470Z,34.38
2023-02-05T06:40:28.849Z,36.55
2023-02-05T06:42:57.152Z,40.75
2023-02-05T06:45:25.297Z,37.63
2023-02-05T06:47:56.013Z,36.55
2023-02-05T06:50:26.496Z,37.70
2023-02-05T06:52:54.768Z,38.67
2023-02-05T06:55:23.097Z,38.42
2023-02-05T06:57:51.339Z,49.80
2023-02-05T07:00:20.262Z,43.15
2023-02-05T07:02:48.526Z,41.78
2023-02-05T07:05:16.957Z,46.80
2023-02-05T07:07:48.036Z,43.28
2023-02-05T07:10:18.749Z,39.65
2023-02-05T07:12:47.284Z,54.38
2023-02-05T07:15:15.599Z,44.90
2023-02-05T07:17:43.915Z,44.00
2023-02-05T07:20:12.670Z,47.47
2023-02-05T07:22:41.920Z,39.53
2023-02-05T07:25:11.618Z,43.05
2023-02-05T07:27:39.829Z,39.13
2023-02-05T07:30:09.091Z,42.10
2023-02-05T07:32:37.419Z,46.00
2023-02-05T07:35:06.177Z,44.78
2023-02-05T07:37:34.397Z,41.13
2023-02-05T07:40:03.001Z,41.70
2023-02-05T07:42:33.471Z,40.88
2023-02-05T07:45:03.836Z,41.05
2023-02-05T07:47:32.086Z,33.23
2023-02-05T07:50:00.252Z,37.60
2023-02-05T07:52:28.502Z,35.47
2023-02-05T07:54:56.767Z,37.25
2023-02-05T07:57:26.549Z,35.78
2023-02-05T07:59:56.123Z,38.60
2023-02-05T08:02:24.448Z,35.70
2023-02-05T08:04:52.670Z,32.10
2023-02-05T08:07:21.025Z,30.25
2023-02-05T08:09:49.187Z,26.35
2023-02-05T08:12:17.619Z,28.70
2023-02-05T08:14:46.259Z,27.88
2023-02-05T08:17:15.939Z,27.48
2023-02-05T08:19:44.115Z,25.70
2023-02-05T08:22:12.327Z,24.88
2023-02-05T08:24:40.480Z,29.92
2023-02-05T08:27:08.941Z,24.10
2023-02-05T08:29:37.363Z,24.73
2023-02-05T08:32:06.042Z,23.50
2023-02-05T08:34:35.643Z,21.95
2023-02-05T08:37:03.894Z,21.65
2023-02-05T08:39:32.066Z,23.50
2023-02-05T08:42:00.276Z,19.95
2023-02-05T08:44:30.562Z,19.17
2023-02-05T08:46:58.828Z,22.63
2023-02-05T08:49:27.271Z,20.23
2023-02-05T08:51:58.207Z,20.27
2023-02-05T08:54:27.110Z,18.83
2023-02-05T08:56:55.300Z,18.83
2023-02-05T08:59:23.670Z,18.90
2023-02-05T09:01:51.867Z,20.95
2023-02-05T09:04:22.107Z,15.73
2023-02-05T09:06:50.702Z,13.73
2023-02-05T09:09:20.915Z,12.35
2023-02-05T09:11:49.472Z,7.20
2023-02-05T09:14:17.817Z,6.97
2023-02-05T09:16:46.176Z,6.28
2023-02-05T09:19:14.380Z,5.38
2023-02-05T09:21:42.955Z,6.30
2023-02-05T09:24:11.211Z,5.28
2023-02-05T09:26:40.757Z,4.15
2023-02-05T09:29:09.017Z,5.28
2023-02-05T09:31:37.506Z,4.25
2023-02-05T09:34:05.788Z,4.70
2023-02-05T09:36:34.089Z,2.38
2023-02-05T09:39:15.009Z,2.50
2023-02-05T09:41:54.546Z,1.90
2023-02-05T09:44:32.411Z,2.78
2023-02-05T09:47:12.355Z,3.30
2023-02-05T09:49:47.687Z,2.50
2023-02-05T09:52:21.543Z,2.00
2023-02-05T09:54:55.460Z,2.50
2023-02-05T09:57:34.211Z,6.13
2023-02-05T10:00:03.332Z,4.82
2023-02-05T10:02:49.993Z,4.60
2023-02-05T10:05:20.423Z,2.65
2023-02-05T10:07:54.650Z,2.13
2023-02-05T10:10:27.771Z,1.83
2023-02-05T10:13:29.709Z,1.50
2023-02-05T10:16:16.447Z,1.80
2023-02-05T10:18:54.605Z,1.58
2023-02-05T10:21:39.829Z,3.33
2023-02-05T10:24:20.805Z,4.60
2023-02-05T10:26:51.815Z,1.08
2023-02-05T10:29:33.881Z,1.02
2023-02-05T10:32:17.600Z,3.80
2023-02-05T10:34:59.552Z,1.52
2023-02-05T10:37:36.709Z,1.90
2023-02-05T10:40:13.863Z,1.40
2023-02-05T10:42:45.044Z,3.03
2023-02-05T10:45:21.027Z,1.23
2023-02-05T10:48:08.369Z,1.10
2023-02-05T10:50:50.355Z,2.20
2023-02-05T10:53:20.851Z,1.10
2023-02-05T10:55:49.357Z,1.58
2023-02-05T10:58:36.124Z,2.58
2023-02-05T11:01:07.067Z,2.20
2023-02-05T11:03:36.062Z,1.50
2023-02-05T11:06:09.832Z,1.08
2023-02-05T11:08:40.147Z,3.00
2023-02-05T11:11:20.016Z,0.80
2023-02-05T11:13:54.218Z,2.50
2023-02-05T11:16:24.698Z,1.95
2023-02-05T11:19:01.932Z,1.70
2023-02-05T11:21:51.201Z,2.00
2023-02-05T11:24:39.537Z,1.00
2023-02-05T11:27:29.542Z,2.20
2023-02-05T11:30:01.154Z,1.70
2023-02-05T11:32:37.125Z,2.83
2023-02-05T11:35:20.842Z,1.90
2023-02-05T11:37:50.599Z,1.70
2023-02-05T11:40:22.265Z,3.97
2023-02-05T11:43:02.329Z,4.57
2023-02-05T11:45:32.340Z,5.50
2023-02-05T11:48:06.495Z,5.35
2023-02-05T11:50:35.356Z,6.40
2023-02-05T11:53:16.515Z,6.70
2023-02-05T11:55:45.670Z,2.80
2023-02-05T11:58:37.033Z,4.60
2023-02-05T12:01:09.042Z,2.20
2023-02-05T12:03:38.657Z,3.20
2023-02-05T12:06:15.489Z,8.40
2023-02-05T12:08:49.260Z,5.20
2023-02-05T12:12:11.299Z,9.98
2023-02-05T12:14:44.159Z,6.67
2023-02-05T12:17:33.132Z,7.65
2023-02-05T12:20:13.050Z,3.60
2023-02-05T12:23:04.684Z,1.60
2023-02-05T12:25:42.705Z,3.85
2023-02-05T12:28:27.667Z,5.80
2023-02-05T12:31:05.977Z,4.35
2023-02-05T12:34:09.165Z,3.30
2023-02-05T12:36:49.761Z,3.00
2023-02-05T12:39:34.037Z,1.52
2023-02-05T12:42:11.745Z,4.07
2023-02-05T12:44:56.414Z,3.05
2023-02-05T12:47:41.007Z,3.20
2023-02-05T12:50:36.592Z,3.00
2023-02-05T12:53:20.889Z,4.47
2023-02-05T12:56:02.031Z,3.70
2023-02-05T12:58:37.406Z,4.28
2023-02-05T13:01:10.190Z,2.60
2023-02-05T13:03:43.465Z,2.90
2023-02-05T13:06:16.549Z,5.53
2023-02-05T13:08:51.702Z,3.30
2023-02-05T13:11:24.030Z,2.58
2023-02-05T13:13:55.765Z,2.50
2023-02-05T13:16:32.530Z,4.20
2023-02-05T13:19:05.569Z,4.53
2023-02-05T13:21:52.280Z,2.78
2023-02-05T13:24:44.829Z,4.63
2023-02-05T13:27:40.394Z,3.83
2023-02-05T13:30:14.682Z,4.60
2023-02-05T13:32:45.593Z,3.40
2023-02-05T13:35:13.941Z,6.90
2023-02-05T13:37:57.027Z,4.63
2023-02-05T13:40:41.884Z,5.00
2023-02-05T13:43:36.771Z,5.55
2023-02-05T13:46:33.062Z,5.82
2023-02-05T13:49:49.006Z,5.77
2023-02-05T13:52:48.340Z,8.52
2023-02-05T13:55:37.468Z,5.82
2023-02-05T13:58:24.239Z,6.03
2023-02-05T14:01:01.215Z,4.40
2023-02-05T14:03:36.213Z,8.60
2023-02-05T14:06:22.928Z,5.90
2023-02-05T14:08:57.468Z,8.00
2023-02-05T14:11:27.380Z,4.22
2023-02-05T14:14:27.948Z,5.40
2023-02-05T14:16:57.220Z,4.95
2023-02-05T14:19:28.397Z,5.72
2023-02-05T14:22:07.758Z,8.65
2023-02-05T14:24:50.466Z,8.20
2023-02-05T14:27:51.271Z,6.85
2023-02-05T14:30:46.522Z,7.32
2023-02-05T14:33:32.898Z,7.32
2023-02-05T14:36:36.138Z,4.55
2023-02-05T14:39:07.958Z,10.48
2023-02-05T14:41:52.757Z,5.57
2023-02-05T14:44:28.661Z,11.13
2023-02-05T14:47:03.166Z,4.75
2023-02-05T14:49:38.714Z,5.93
2023-02-05T14:52:17.627Z,10.10
2023-02-05T14:54:48.747Z,6.10
2023-02-05T14:57:23.180Z,7.50
2023-02-05T14:59:55.938Z,5.85
2023-02-05T15:03:07.236Z,9.80
2023-02-05T15:05:41.935Z,11.65
2023-02-05T15:08:14.515Z,9.13
2023-02-05T15:10:50.134Z,12.15
2023-02-05T15:13:19.610Z,14.52
2023-02-05T15:16:20.127Z,7.15
2023-02-05T15:18:52.052Z,7.77
2023-02-05T15:21:26.197Z,12.10
2023-02-05T15:24:00.759Z,8.40
2023-02-05T15:26:37.688Z,14.37
2023-02-05T15:29:10.423Z,6.15
2023-02-05T15:31:45.571Z,11.50
2023-02-05T15:34:33.980Z,13.55
2023-02-05T15:37:16.053Z,19.98
2023-02-05T15:39:51.083Z,8.90
2023-02-05T15:42:21.891Z,7.90
2023-02-05T15:44:50.244Z,9.32
2023-02-05T15:47:22.076Z,17.80
2023-02-05T15:49:54.367Z,24.25
2023-02-05T15:52:25.458Z,14.98
2023-02-05T15:54:57.106Z,16.23
2023-02-05T15:57:28.643Z,10.88
2023-02-05T15:59:59.279Z,11.23
2023-02-05T16:02:29.244Z,7.70
2023-02-05T16:05:00.416Z,9.50
2023-02-05T16:07:30.886Z,9.32
2023-02-05T16:10:00.862Z,6.57
2023-02-05T16:12:31.432Z,16.13
2023-02-05T16:15:03.794Z,9.97
2023-02-05T16:17:39.297Z,11.05
2023-02-05T16:20:28.846Z,6.18
2023-02-05T16:23:00.551Z,10.65
2023-02-05T16:25:36.237Z,10.37
2023-02-05T16:28:08.021Z,13.55
2023-02-05T16:30:42.670Z,10.20
2023-02-05T16:33:24.097Z,13.23
2023-02-05T16:35:54.500Z,7.82
2023-02-05T16:38:24.297Z,12.05
2023-02-05T16:40:56.013Z,11.18
2023-02-05T16:43:38.569Z,6.35
2023-02-05T16:46:27.771Z,7.63
2023-02-05T16:48:58.138Z,11.15
2023-02-05T16:51:39.969Z,7.35
2023-02-05T16:54:31.619Z,9.50
2023-02-05T16:57:04.322Z,11.80
2023-02-05T16:59:35.804Z,8.38
2023-02-05T17:02:04.586Z,16.00
2023-02-05T17:04:36.939Z,12.50
2023-02-05T17:07:18.532Z,15.57
2023-02-05T17:09:47.257Z,18.70
2023-02-05T17:12:39.621Z,14.07
2023-02-05T17:15:41.185Z,10.20
2023-02-05T17:18:28.680Z,19.30
2023-02-05T17:21:23.019Z,21.33
2023-02-05T17:23:53.707Z,14.55
2023-02-05T17:26:22.423Z,11.87
2023-02-05T17:28:54.406Z,29.48
2023-02-05T17:31:26.764Z,53.65
2023-02-05T17:33:56.463Z,26.88
2023-02-05T17:36:25.391Z,31.80
2023-02-05T17:38:55.732Z,60.20
2023-02-05T17:41:43.868Z,158.98
2023-02-05T17:44:13.514Z,42.55
2023-02-05T17:46:42.444Z,17.00
2023-02-05T17:49:10.980Z,13.35
2023-02-05T17:51:42.422Z,14.27
2023-02-05T17:54:17.098Z,11.77
2023-02-05T17:56:48.369Z,11.07
2023-02-05T17:59:18.641Z,9.35
2023-02-05T18:01:47.285Z,18.50
2023-02-05T18:04:16.107Z,15.30
2023-02-05T18:06:44.459Z,13.52
2023-02-05T18:09:13.810Z,11.93
2023-02-05T18:11:43.841Z,21.02
2023-02-05T18:14:12.665Z,16.65
2023-02-05T18:16:41.275Z,13.38
2023-02-05T18:19:09.625Z,15.93
2023-02-05T18:21:37.840Z,12.75
2023-02-05T18:24:06.341Z,14.15
2023-02-05T18:26:34.535Z,8.40
2023-02-05T18:29:04.446Z,14.15
2023-02-05T18:31:34.195Z,20.30
2023-02-05T18:34:02.435Z,12.18
2023-02-05T18:36:30.659Z,13.85
2023-02-05T18:38:58.890Z,12.52
2023-02-05T18:41:28.581Z,11.40
2023-02-05T18:43:57.387Z,11.65
2023-02-05T18:46:29.126Z,9.38
2023-02-05T18:48:57.654Z,15.88
2023-02-05T18:51:25.945Z,9.00
2023-02-05T18:53:54.507Z,11.00
2023-02-05T18:56:25.128Z,23.75
2023-02-05T18:58:56.371Z,13.23
2023-02-05T19:01:26.546Z,14.60
2023-02-05T19:03:54.824Z,11.45
2023-02-05T19:06:23.268Z,12.50
2023-02-05T19:08:51.796Z,16.40
2023-02-05T19:11:22.783Z,11.20
2023-02-05T19:13:57.125Z,18.42
2023-02-05T19:16:28.101Z,13.50
2023-02-05T19:18:57.816Z,16.08
2023-02-05T19:21:29.175Z,11.63
2023-02-05T19:23:59.760Z,15.88
2023-02-05T19:26:30.023Z,16.90
2023-02-05T19:29:00.323Z,18.33
2023-02-05T19:31:32.559Z,13.98
2023-02-05T19:34:01.401Z,13.38
2023-02-05T19:36:30.304Z,14.30
2023-02-05T19:39:00.384Z,10.98
2023-02-05T19:41:30.148Z,11.50
2023-02-05T19:44:02.197Z,12.00
2023-02-05T19:46:33.589Z,12.27
2023-02-05T19:49:03.731Z,11.95
2023-02-05T19:51:32.054Z,8.48
2023-02-05T19:54:03.052Z,7.95
2023-02-05T19:56:32.474Z,13.13
2023-02-05T19:59:00.711Z,13.65
2023-02-05T20:01:32.209Z,8.48
2023-02-05T20:04:02.432Z,10.93
2023-02-05T20:06:31.464Z,13.53
2023-02-05T20:09:01.712Z,10.05
2023-02-05T20:11:31.285Z,9.60
2023-02-05T20:14:02.538Z,9.82
2023-02-05T20:16:32.336Z,9.18
2023-02-05T20:19:02.147Z,12.55
2023-02-05T20:21:31.325Z,15.50
2023-02-05T20:23:59.517Z,14.20
2023-02-05T20:26:27.974Z,16.52
2023-02-05T20:29:15.437Z,14.77
2023-02-05T20:31:47.025Z,15.23
2023-02-05T20:34:19.255Z,15.75
2023-02-05T20:36:48.830Z,16.73
2023-02-05T20:39:18.531Z,18.05
2023-02-05T20:41:47.492Z,13.10
2023-02-05T20:44:16.660Z,8.85
2023-02-05T20:46:46.990Z,9.90
2023-02-05T20:49:15.344Z,19.50
2023-02-05T20:51:44.281Z,8.65
2023-02-05T20:54:13.238Z,14.52
2023-02-05T20:56:41.644Z,19.45
2023-02-05T20:59:11.848Z,19.75
2023-02-05T21:01:41.106Z,18.98
2023-02-05T21:04:11.528Z,12.20
2023-02-05T21:06:41.210Z,12.90
2023-02-05T21:09:10.629Z,14.10
2023-02-05T21:11:39.566Z,17.52
2023-02-05T21:14:08.973Z,9.95
2023-02-05T21:16:38.402Z,17.38
2023-02-05T21:19:08.413Z,13.95
2023-02-05T21:21:38.605Z,10.67
2023-02-05T21:24:08.966Z,9.93
2023-02-05T21:26:39.240Z,11.73
2023-02-05T21:29:10.260Z,11.50
2023-02-05T21:31:40.922Z,11.65
2023-02-05T21:34:10.445Z,15.82
2023-02-05T21:36:40.216Z,7.90
2023-02-05T21:39:08.512Z,14.90
2023-02-05T21:41:36.642Z,13.50
2023-02-05T21:44:05.277Z,13.38
2023-02-05T21:46:33.642Z,12.63
2023-02-05T21:49:02.598Z,19.20
2023-02-05T21:51:33.943Z,16.27
2023-02-05T21:54:06.385Z,17.48
2023-02-05T21:56:37.072Z,6.82
2023-02-05T21:59:05.757Z,13.63
2023-02-05T22:01:35.953Z,12.27
2023-02-05T22:04:06.193Z,23.08
2023-02-05T22:06:35.737Z,17.67
2023-02-05T22:09:09.458Z,14.07
2023-02-05T22:11:39.244Z,11.95
2023-02-05T22:14:08.294Z,10.82
2023-02-05T22:16:37.609Z,17.63
2023-02-05T22:19:06.690Z,13.57
2023-02-05T22:21:36.837Z,10.20
2023-02-05T22:24:08.256Z,11.65
2023-02-05T22:26:39.789Z,17.83
2023-02-05T22:29:09.612Z,13.63
2023-02-05T22:31:38.269Z,19.58
2023-02-05T22:34:06.581Z,13.30
2023-02-05T22:36:36.130Z,11.85
2023-02-05T22:39:07.255Z,10.93
2023-02-05T22:41:37.126Z,15.45
2023-02-05T22:44:07.121Z,12.55
2023-02-05T22:47:02.616Z,11.70
2023-02-05T22:53:38.056Z,11.57
2023-02-05T22:56:09.999Z,11.13
2023-02-05T22:58:40.730Z,11.85
2023-02-05T23:01:10.842Z,14.30
2023-02-05T23:03:39.935Z,11.88
2023-02-05T23:06:12.841Z,10.60
2023-02-05T23:08:41.800Z,13.77
2023-02-05T23:11:14.530Z,16.88
2023-02-05T23:13:43.364Z,14.43
2023-02-05T23:16:14.167Z,14.50
2023-02-05T23:18:43.590Z,18.30
2023-02-05T23:21:13.648Z,15.45
2023-02-05T23:23:42.290Z,12.07
2023-02-05T23:26:14.466Z,18.87
2023-02-05T23:28:42.861Z,13.88
2023-02-05T23:31:11.392Z,9.98
2023-02-05T23:33:39.716Z,11.63
2023-02-05T23:36:09.729Z,12.10
2023-02-05T23:38:38.696Z,17.80
2023-02-05T23:41:07.755Z,8.00
2023-02-05T23:43:38.349Z,10.48
2023-02-05T23:46:08.204Z,13.07
2023-02-05T23:48:38.456Z,9.50
2023-02-05T23:51:06.831Z,19.05
2023-02-05T23:53:35.097Z,12.75
2023-02-05T23:56:03.775Z,18.50
2023-02-05T23:58:31.998Z,15.00
